Capitol Logistics 3260


KMIA
Miami International Airport
Miami, Florida, US
KTPA
Tampa International Airport
Tampa, Florida, US

Activity Log

Date Flight Route Aircraft Duration
11/07/2019 CPX660 WINCO2 WINCO V97 BRDGE BRDGE8 SF34 1h 01m
07/17/2019 CPX660 KMIA WINCO2 WINCO CHRRI DEAKK KTPA SF34 0h 54m

Route Details

Aircraft Information
Primary: Saab 340AF
Backup: Not Available
Route Data
Distance: 177nm
Sched. Duration: 1h 30m
Avg. Duration: 0h 77m (-53m)
Times Flown: 2
Recm'd Route: WINCO2 WINCO V97 BRDGE BRDGE8
Planned Altitude: 16,000ft
Origin Wx: KMIA 231253Z 03004KT 10SM FEW030 20/13 A3020 RMK AO2 SLP225 T02000133
Dest. Wx: KTPA 231253Z 05006KT 10SM FEW035 12/09 A3026 RMK AO2 SLP247 T01170089
Notes:

Financial History
Total Freight: 11,390lbs
Average Load: 5,695lbs/flt
Fuel Used: 1,680lbs
Avg. Fuel Used: 840lbs/flt
Fuel Expense: $2,066
Avg. Fuel Expense: $1,033
Avg. Fuel Cost: $1.23/lbs
Total Gross Income: $12,757
Pilot Pay: $328
Total Expenses: $1,482
Total Revenue: $8,902
Average Revenue: $6,378.40